createdAt,value
2016-10-31T18:02:06.700Z,1026.09
2016-10-31T18:03:07.379Z,1026.06
2016-10-31T18:04:08.079Z,1026.07
2016-10-31T18:05:08.738Z,1026.04
2016-10-31T18:06:09.419Z,1026.05
2016-10-31T18:07:10.079Z,1026.03
2016-10-31T18:08:10.734Z,1026.03
2016-10-31T18:09:11.407Z,1026
2016-10-31T18:10:12.079Z,1026.01
2016-10-31T18:11:12.751Z,1025.99
2016-10-31T18:12:13.430Z,1026
2016-10-31T18:13:14.078Z,1025.99
2016-10-31T18:14:14.740Z,1025.98
2016-10-31T18:15:15.409Z,1026.03
2016-10-31T18:16:16.234Z,1025.99
2016-10-31T18:17:16.914Z,1026.01
2016-10-31T18:18:17.632Z,1026.02
2016-10-31T18:19:18.361Z,1026.01
2016-10-31T18:20:19.075Z,1026.01
2016-10-31T18:21:19.764Z,1025.98
2016-10-31T18:22:20.417Z,1026
2016-10-31T18:23:21.091Z,1026
2016-10-31T18:24:21.799Z,1026.02
2016-10-31T18:25:22.463Z,1026.02
2016-10-31T18:26:23.141Z,1026.06
2016-10-31T18:27:23.875Z,1026.05
2016-10-31T18:28:24.553Z,1026.06
2016-10-31T18:29:25.210Z,1026.02
2016-10-31T18:30:25.869Z,1026.02
2016-10-31T18:31:26.547Z,1025.95
2016-10-31T18:32:27.200Z,1025.98
2016-10-31T18:33:27.863Z,1025.9
2016-10-31T18:34:29.319Z,1025.92
2016-10-31T18:35:30.634Z,1025.91
2016-10-31T18:36:31.312Z,1025.94
2016-10-31T18:37:31.988Z,1025.92
2016-10-31T18:38:32.654Z,1025.88
2016-10-31T18:39:33.323Z,1025.94
2016-10-31T18:40:33.997Z,1025.88
2016-10-31T18:41:34.656Z,1025.86
2016-10-31T18:42:35.325Z,1025.86
2016-10-31T18:43:35.986Z,1025.88
2016-10-31T18:44:36.642Z,1025.89
2016-10-31T18:45:37.424Z,1025.84
2016-10-31T18:46:38.083Z,1025.86
2016-10-31T18:47:38.752Z,1025.88
2016-10-31T18:48:39.422Z,1025.86
2016-10-31T18:49:40.083Z,1025.85
2016-10-31T18:50:40.744Z,1025.77
2016-10-31T18:51:41.428Z,1025.81
2016-10-31T18:52:42.107Z,1025.76
2016-10-31T18:53:42.764Z,1025.77
2016-10-31T18:54:43.460Z,1025.77
2016-10-31T18:55:44.124Z,1025.75
2016-10-31T18:56:44.792Z,1025.76
2016-10-31T18:57:45.457Z,1025.74
2016-10-31T18:58:46.118Z,1025.76
2016-10-31T18:59:46.783Z,1025.71
2016-10-31T19:00:47.450Z,1025.77
2016-10-31T19:01:48.126Z,1025.75
2016-10-31T19:02:48.794Z,1025.77
2016-10-31T19:03:49.457Z,1025.76
2016-10-31T19:04:50.117Z,1025.75
2016-10-31T19:05:50.800Z,1025.74
2016-10-31T19:06:51.464Z,1025.77
2016-10-31T19:07:52.168Z,1025.79
2016-10-31T19:08:52.840Z,1025.76
2016-10-31T19:09:53.499Z,1025.8
2016-10-31T19:10:54.795Z,1025.81
2016-10-31T19:11:56.596Z,1025.8
2016-10-31T19:12:58.038Z,1025.79
2016-10-31T19:13:58.763Z,1025.83
2016-10-31T19:14:59.422Z,1025.78
2016-10-31T19:16:00.081Z,1025.8
2016-10-31T19:17:00.744Z,1025.79
2016-10-31T19:18:01.407Z,1025.76
2016-10-31T19:19:02.070Z,1025.79
2016-10-31T19:20:02.726Z,1025.74
2016-10-31T19:21:03.390Z,1025.78
2016-10-31T19:22:04.052Z,1025.79
2016-10-31T19:23:04.707Z,1025.79
2016-10-31T19:24:05.367Z,1025.78
2016-10-31T19:25:06.027Z,1025.77
2016-10-31T19:26:06.683Z,1025.8
2016-10-31T19:27:07.350Z,1025.78
2016-10-31T19:28:08.009Z,1025.8
2016-10-31T19:29:08.672Z,1025.77
2016-10-31T19:30:09.339Z,1025.77
2016-10-31T19:31:10.006Z,1025.81
2016-10-31T19:32:10.663Z,1025.8
2016-10-31T19:33:11.322Z,1025.8
2016-10-31T19:34:11.982Z,1025.8
2016-10-31T19:35:12.729Z,1025.76
2016-10-31T19:36:13.384Z,1025.76
2016-10-31T19:37:14.036Z,1025.75
2016-10-31T19:38:14.710Z,1025.73
2016-10-31T19:39:15.367Z,1025.73
2016-10-31T19:40:16.026Z,1025.68
2016-10-31T19:41:16.680Z,1025.69
2016-10-31T19:42:17.340Z,1025.7
2016-10-31T19:43:18.000Z,1025.7
2016-10-31T19:44:18.680Z,1025.7
2016-10-31T19:45:19.335Z,1025.71
2016-10-31T19:46:20.007Z,1025.72
2016-10-31T19:47:20.666Z,1025.74
2016-10-31T19:48:21.321Z,1025.75
2016-10-31T19:49:21.988Z,1025.75
2016-10-31T19:50:22.645Z,1025.74
2016-10-31T19:51:23.324Z,1025.72
2016-10-31T19:52:23.986Z,1025.75
2016-10-31T19:53:24.664Z,1025.78
2016-10-31T19:54:25.331Z,1025.79
2016-10-31T19:55:26.000Z,1025.79
2016-10-31T19:56:26.672Z,1025.81
2016-10-31T19:57:27.366Z,1025.79
2016-10-31T19:58:28.033Z,1025.78
2016-10-31T19:59:28.701Z,1025.78
2016-10-31T20:00:29.368Z,1025.76
2016-10-31T20:01:30.030Z,1025.73
2016-10-31T20:02:30.713Z,1025.79
2016-10-31T20:03:31.360Z,1025.75
2016-10-31T20:04:32.024Z,1025.77
2016-10-31T20:05:32.684Z,1025.78
2016-10-31T20:06:33.350Z,1025.76
2016-10-31T20:07:34.011Z,1025.73
2016-10-31T20:08:34.687Z,1025.74
2016-10-31T20:09:35.344Z,1025.7
2016-10-31T20:10:35.991Z,1025.69
2016-10-31T20:11:36.669Z,1025.66
2016-10-31T20:12:37.333Z,1025.68
2016-10-31T20:13:38.013Z,1025.68
2016-10-31T20:14:38.678Z,1025.69
2016-10-31T20:15:39.337Z,1025.67
2016-10-31T20:16:39.996Z,1025.68
2016-10-31T20:17:40.656Z,1025.73
2016-10-31T20:18:41.326Z,1025.71
2016-10-31T20:19:42.001Z,1025.71
2016-10-31T20:20:42.663Z,1025.7
2016-10-31T20:21:43.336Z,1025.69
2016-10-31T20:22:44.043Z,1025.65
2016-10-31T20:23:44.744Z,1025.65
2016-10-31T20:24:45.411Z,1025.69
2016-10-31T20:25:46.077Z,1025.64
2016-10-31T20:26:46.741Z,1025.63
2016-10-31T20:27:47.422Z,1025.63
2016-10-31T20:28:48.090Z,1025.62
2016-10-31T20:29:48.775Z,1025.57
2016-10-31T20:30:49.435Z,1025.58
2016-10-31T20:31:50.100Z,1025.53
2016-10-31T20:32:50.771Z,1025.55
2016-10-31T20:33:51.450Z,1025.49
2016-10-31T20:34:52.120Z,1025.53
2016-10-31T20:35:52.812Z,1025.49
2016-10-31T20:36:53.499Z,1025.52
2016-10-31T20:37:54.188Z,1025.49
2016-10-31T20:38:54.854Z,1025.53
2016-10-31T20:39:55.526Z,1025.49
2016-10-31T20:40:56.205Z,1025.51
2016-10-31T20:41:56.863Z,1025.49
2016-10-31T20:42:57.550Z,1025.49
2016-10-31T20:43:58.229Z,1025.47
2016-10-31T20:44:58.895Z,1025.49
2016-10-31T20:45:59.565Z,1025.47
2016-10-31T20:47:00.232Z,1025.5
2016-10-31T20:48:00.895Z,1025.47
2016-10-31T20:49:01.557Z,1025.45
2016-10-31T20:50:02.224Z,1025.45
2016-10-31T20:51:02.896Z,1025.46
2016-10-31T20:52:03.554Z,1025.47
2016-10-31T20:53:04.530Z,1025.45
2016-10-31T20:54:05.199Z,1025.42
2016-10-31T20:55:06.185Z,1025.44
2016-10-31T20:56:06.892Z,1025.41
2016-10-31T20:57:07.721Z,1025.44
2016-10-31T20:58:08.622Z,1025.45
2016-10-31T20:59:09.306Z,1025.41
2016-10-31T21:00:10.151Z,1025.41
2016-10-31T21:01:11.093Z,1025.36
2016-10-31T21:02:11.942Z,1025.41
2016-10-31T21:03:13.274Z,1025.32
2016-10-31T21:04:14.200Z,1025.33
2016-10-31T21:05:15.257Z,1025.36
2016-10-31T21:06:15.920Z,1025.31
2016-10-31T21:07:16.712Z,1025.3
2016-10-31T21:08:17.390Z,1025.31
2016-10-31T21:09:18.078Z,1025.29
2016-10-31T21:10:18.773Z,1025.31
2016-10-31T21:11:19.451Z,1025.33
2016-10-31T21:12:20.122Z,1025.29
2016-10-31T21:13:20.797Z,1025.3
2016-10-31T21:14:21.483Z,1025.32
2016-10-31T21:15:22.140Z,1025.28
2016-10-31T21:16:22.803Z,1025.31
2016-10-31T21:17:23.471Z,1025.26
2016-10-31T21:18:24.288Z,1025.25
2016-10-31T21:19:24.954Z,1025.24
2016-10-31T21:20:25.629Z,1025.24
2016-10-31T21:21:26.298Z,1025.23
2016-10-31T21:22:26.954Z,1025.25
2016-10-31T21:23:27.677Z,1025.18
2016-10-31T21:24:28.359Z,1025.21
2016-10-31T21:25:29.022Z,1025.19
2016-10-31T21:26:29.693Z,1025.18
2016-10-31T21:27:30.354Z,1025.18
2016-10-31T21:28:31.030Z,1025.2
2016-10-31T21:29:31.683Z,1025.2
2016-10-31T21:30:32.438Z,1025.18
2016-10-31T21:31:33.146Z,1025.17
2016-10-31T21:32:33.818Z,1025.14
2016-10-31T21:33:34.494Z,1025.14
2016-10-31T21:34:35.165Z,1025.11
2016-10-31T21:35:35.836Z,1025.16
2016-10-31T21:36:36.503Z,1025.17
2016-10-31T21:37:37.191Z,1025.13
2016-10-31T21:38:37.854Z,1025.11
2016-10-31T21:39:38.516Z,1025.07
2016-10-31T21:40:39.191Z,1025.09
2016-10-31T21:41:39.871Z,1025.07
2016-10-31T21:42:40.536Z,1025.07
2016-10-31T21:43:41.212Z,1025.06
2016-10-31T21:44:41.878Z,1025.07
2016-10-31T21:45:42.551Z,1025.05
2016-10-31T21:46:43.230Z,1025.06
2016-10-31T21:47:43.910Z,1025.05
2016-10-31T21:48:44.750Z,1025.04
2016-10-31T21:49:45.496Z,1025.04
2016-10-31T21:50:46.234Z,1025.03
2016-10-31T21:51:46.899Z,1025.03
2016-10-31T21:52:47.563Z,1025.03
2016-10-31T21:53:48.587Z,1025.05
2016-10-31T21:54:49.872Z,1024.98
2016-10-31T21:55:50.534Z,1025.02
2016-10-31T21:56:51.201Z,1025.01
2016-10-31T21:57:51.866Z,1025.02
2016-10-31T21:58:52.531Z,1025.05
2016-10-31T21:59:53.252Z,1025.04
2016-10-31T22:00:53.924Z,1025.05
2016-10-31T22:01:54.587Z,1025.05
2016-10-31T22:02:55.249Z,1025.05
2016-10-31T22:03:55.909Z,1025.07
2016-10-31T22:04:56.568Z,1025.12
2016-10-31T22:05:57.226Z,1025.12
2016-10-31T22:06:57.879Z,1025.1
2016-10-31T22:07:58.544Z,1025.08
2016-10-31T22:08:59.209Z,1025.08
2016-10-31T22:09:59.875Z,1025.09
2016-10-31T22:11:00.546Z,1025.12
2016-10-31T22:12:01.215Z,1025.06
2016-10-31T22:13:01.880Z,1025.07
2016-10-31T22:14:02.557Z,1025.09
2016-10-31T22:15:03.208Z,1025.07
2016-10-31T22:16:03.876Z,1025.09
2016-10-31T22:17:04.541Z,1025.04
2016-10-31T22:18:05.209Z,1025.05
2016-10-31T22:19:05.872Z,1024.99
2016-10-31T22:20:06.536Z,1024.99
2016-10-31T22:21:07.208Z,1024.99
2016-10-31T22:22:07.892Z,1025
2016-10-31T22:23:08.558Z,1024.98
2016-10-31T22:24:09.218Z,1024.99
2016-10-31T22:25:09.879Z,1024.93
2016-10-31T22:26:10.545Z,1024.95
2016-10-31T22:27:11.219Z,1024.94
2016-10-31T22:28:11.881Z,1024.92
2016-10-31T22:29:12.541Z,1024.91
2016-10-31T22:30:13.211Z,1024.92
2016-10-31T22:31:13.873Z,1024.86
2016-10-31T22:32:14.566Z,1024.84
2016-10-31T22:33:15.233Z,1024.84
2016-10-31T22:34:15.919Z,1024.84
2016-10-31T22:35:16.575Z,1024.81
2016-10-31T22:36:17.257Z,1024.8
2016-10-31T22:37:17.921Z,1024.8
2016-10-31T22:38:18.598Z,1024.8
2016-10-31T22:39:19.262Z,1024.78
2016-10-31T22:40:19.943Z,1024.77
2016-10-31T22:41:20.605Z,1024.81
2016-10-31T22:42:21.290Z,1024.78
2016-10-31T22:43:21.955Z,1024.78
2016-10-31T22:44:22.635Z,1024.77
2016-10-31T22:45:23.308Z,1024.75
2016-10-31T22:46:24.287Z,1024.75
2016-10-31T22:47:24.957Z,1024.72
2016-10-31T22:48:25.621Z,1024.68
2016-10-31T22:49:26.290Z,1024.66
2016-10-31T22:50:26.954Z,1024.71
2016-10-31T22:51:27.627Z,1024.66
2016-10-31T22:52:28.279Z,1024.67
2016-10-31T22:53:28.943Z,1024.68
2016-10-31T22:54:29.603Z,1024.72
2016-10-31T22:55:30.274Z,1024.71
2016-10-31T22:56:30.946Z,1024.68
2016-10-31T22:57:31.632Z,1024.67
2016-10-31T22:58:32.298Z,1024.65
2016-10-31T22:59:32.962Z,1024.69
2016-10-31T23:00:33.634Z,1024.63
2016-10-31T23:01:34.309Z,1024.64
2016-10-31T23:02:34.976Z,1024.64
2016-10-31T23:03:35.645Z,1024.58
2016-10-31T23:04:36.330Z,1024.55
2016-10-31T23:05:37.000Z,1024.48
2016-10-31T23:06:37.657Z,1024.5
2016-10-31T23:07:38.345Z,1024.47
2016-10-31T23:08:39.031Z,1024.44
2016-10-31T23:09:39.722Z,1024.42
2016-10-31T23:10:40.414Z,1024.36
2016-10-31T23:11:41.084Z,1024.34
2016-10-31T23:12:41.799Z,1024.32
2016-10-31T23:13:42.480Z,1024.32
2016-10-31T23:14:43.155Z,1024.3
2016-10-31T23:15:43.837Z,1024.29
2016-10-31T23:16:44.510Z,1024.23
2016-10-31T23:17:45.182Z,1024.23
2016-10-31T23:18:45.855Z,1024.22
2016-10-31T23:19:46.522Z,1024.18
2016-10-31T23:20:47.198Z,1024.14
2016-10-31T23:21:47.886Z,1024.07
2016-10-31T23:22:48.567Z,1024.15
2016-10-31T23:23:49.239Z,1024.16
2016-10-31T23:24:49.903Z,1024.16
2016-10-31T23:25:50.571Z,1024.14
2016-10-31T23:26:51.232Z,1024.14
2016-10-31T23:27:51.899Z,1024.13
2016-10-31T23:28:52.566Z,1024.13
2016-10-31T23:29:53.235Z,1024.08
2016-10-31T23:30:53.904Z,1024.06
2016-10-31T23:31:54.568Z,1024.05
2016-10-31T23:32:55.232Z,1024.04
2016-10-31T23:33:55.904Z,1024.03
2016-10-31T23:34:56.570Z,1024.02
2016-10-31T23:35:57.252Z,1024.01
2016-10-31T23:36:57.914Z,1024.01
2016-10-31T23:37:58.615Z,1023.97
2016-10-31T23:38:59.278Z,1023.98
2016-10-31T23:39:59.951Z,1023.95
2016-10-31T23:41:00.611Z,1023.93
2016-10-31T23:42:01.278Z,1023.92
2016-10-31T23:43:01.945Z,1023.89
2016-10-31T23:44:02.606Z,1023.83
2016-10-31T23:45:03.278Z,1023.83
2016-10-31T23:46:03.964Z,1023.82
2016-10-31T23:47:04.623Z,1023.8
2016-10-31T23:48:05.297Z,1023.78
2016-10-31T23:49:05.963Z,1023.76
2016-10-31T23:50:06.627Z,1023.76
2016-10-31T23:51:07.289Z,1023.72
2016-10-31T23:52:07.946Z,1023.7
2016-10-31T23:53:08.621Z,1023.7
2016-10-31T23:54:09.290Z,1023.73
2016-10-31T23:55:09.987Z,1023.7
2016-10-31T23:56:10.662Z,1023.7
2016-10-31T23:57:11.350Z,1023.67
2016-10-31T23:58:12.019Z,1023.68
2016-10-31T23:59:12.680Z,1023.64
